sensor_id;sensor_type;location;lat;lon;timestamp;pressure;altitude;pressure_sealevel;temperature;humidity
21109;BME280;10712;52.944;9.098;2023-09-19T00:00:39;100319.59;;;25.25;73.53
21109;BME280;10712;52.944;9.098;2023-09-19T00:03:06;100320.66;;;25.24;73.74
21109;BME280;10712;52.944;9.098;2023-09-19T00:05:36;100323.38;;;25.24;73.54
21109;BME280;10712;52.944;9.098;2023-09-19T00:08:04;100326.66;;;25.19;73.57
21109;BME280;10712;52.944;9.098;2023-09-19T00:10:32;100327.91;;;25.17;73.68
21109;BME280;10712;52.944;9.098;2023-09-19T00:13:02;100320.38;;;25.19;73.57
21109;BME280;10712;52.944;9.098;2023-09-19T00:15:40;100323.63;;;25.07;73.91
21109;BME280;10712;52.944;9.098;2023-09-19T00:18:07;100333.75;;;25.14;73.60
21109;BME280;10712;52.944;9.098;2023-09-19T00:20:38;100333.38;;;25.17;73.67
21109;BME280;10712;52.944;9.098;2023-09-19T00:23:05;100339.84;;;25.16;73.45
21109;BME280;10712;52.944;9.098;2023-09-19T00:25:31;100337.97;;;25.16;73.50
21109;BME280;10712;52.944;9.098;2023-09-19T00:28:01;100344.66;;;25.14;73.46
21109;BME280;10712;52.944;9.098;2023-09-19T00:30:27;100349.25;;;25.13;73.58
21109;BME280;10712;52.944;9.098;2023-09-19T00:32:53;100355.56;;;25.14;73.45
21109;BME280;10712;52.944;9.098;2023-09-19T00:35:23;100348.41;;;25.13;73.43
21109;BME280;10712;52.944;9.098;2023-09-19T00:37:50;100355.56;;;25.14;73.44
21109;BME280;10712;52.944;9.098;2023-09-19T00:40:16;100350.75;;;25.16;73.38
21109;BME280;10712;52.944;9.098;2023-09-19T00:42:46;100348.41;;;25.13;73.31
21109;BME280;10712;52.944;9.098;2023-09-19T00:45:14;100348.81;;;25.09;73.42
21109;BME280;10712;52.944;9.098;2023-09-19T00:47:44;100359.31;;;25.13;73.36
21109;BME280;10712;52.944;9.098;2023-09-19T00:50:12;100351.53;;;25.09;73.19
21109;BME280;10712;52.944;9.098;2023-09-19T00:52:42;100358.22;;;25.07;73.49
21109;BME280;10712;52.944;9.098;2023-09-19T00:55:10;100373.13;;;25.11;73.18
21109;BME280;10712;52.944;9.098;2023-09-19T00:57:38;100366.47;;;25.14;73.30
21109;BME280;10712;52.944;9.098;2023-09-19T01:00:08;100368.06;;;25.08;73.24
21109;BME280;10712;52.944;9.098;2023-09-19T01:02:37;100364.56;;;25.14;73.13
21109;BME280;10712;52.944;9.098;2023-09-19T01:05:04;100374.91;;;25.19;72.94
21109;BME280;10712;52.944;9.098;2023-09-19T01:07:32;100371.53;;;25.17;73.09
21109;BME280;10712;52.944;9.098;2023-09-19T01:10:01;100373.41;;;25.16;73.00
21109;BME280;10712;52.944;9.098;2023-09-19T01:18:17;100382.56;;;25.08;72.78
21109;BME280;10712;52.944;9.098;2023-09-19T01:29:46;100391.09;;;25.05;72.34
21109;BME280;10712;52.944;9.098;2023-09-19T01:32:21;100387.41;;;25.13;71.92
21109;BME280;10712;52.944;9.098;2023-09-19T01:34:55;100395.78;;;25.11;72.13
21109;BME280;10712;52.944;9.098;2023-09-19T01:37:30;100393.81;;;25.05;72.29
21109;BME280;10712;52.944;9.098;2023-09-19T01:40:06;100401.16;;;25.05;72.23
21109;BME280;10712;52.944;9.098;2023-09-19T01:45:50;100399.47;;;25.04;72.23
21109;BME280;10712;52.944;9.098;2023-09-19T01:51:20;100451.84;;;24.99;72.58
21109;BME280;10712;52.944;9.098;2023-09-19T01:54:09;100459.81;;;24.86;72.74
21109;BME280;10712;52.944;9.098;2023-09-19T01:56:57;100439.44;;;24.67;71.29
21109;BME280;10712;52.944;9.098;2023-09-19T01:59:37;100442.06;;;24.46;71.30
21109;BME280;10712;52.944;9.098;2023-09-19T02:02:07;100437.25;;;24.33;71.10
21109;BME280;10712;52.944;9.098;2023-09-19T02:04:34;100438.28;;;24.32;70.39
21109;BME280;10712;52.944;9.098;2023-09-19T02:07:01;100438.78;;;24.13;70.76
21109;BME280;10712;52.944;9.098;2023-09-19T02:09:27;100437.94;;;24.13;71.17
21109;BME280;10712;52.944;9.098;2023-09-19T02:11:52;100439.13;;;24.10;71.54
21109;BME280;10712;52.944;9.098;2023-09-19T02:14:18;100441.56;;;24.05;71.90
21109;BME280;10712;52.944;9.098;2023-09-19T02:16:45;100452.06;;;24.08;72.21
21109;BME280;10712;52.944;9.098;2023-09-19T02:19:11;100455.47;;;24.10;72.76
21109;BME280;10712;52.944;9.098;2023-09-19T02:21:37;100469.00;;;24.18;73.00
21109;BME280;10712;52.944;9.098;2023-09-19T02:24:07;100464.75;;;24.16;72.99
21109;BME280;10712;52.944;9.098;2023-09-19T02:26:33;100464.59;;;24.17;72.43
21109;BME280;10712;52.944;9.098;2023-09-19T02:29:02;100471.69;;;24.04;71.61
21109;BME280;10712;52.944;9.098;2023-09-19T02:31:30;100471.41;;;23.99;71.20
21109;BME280;10712;52.944;9.098;2023-09-19T02:33:56;100478.47;;;23.85;70.69
21109;BME280;10712;52.944;9.098;2023-09-19T02:36:22;100478.34;;;23.78;70.31
21109;BME280;10712;52.944;9.098;2023-09-19T02:38:49;100477.19;;;23.73;70.01
21109;BME280;10712;52.944;9.098;2023-09-19T02:41:15;100468.72;;;23.68;69.97
21109;BME280;10712;52.944;9.098;2023-09-19T02:43:41;100476.88;;;23.68;70.08
21109;BME280;10712;52.944;9.098;2023-09-19T02:46:08;100486.06;;;23.67;69.68
21109;BME280;10712;52.944;9.098;2023-09-19T02:48:34;100475.91;;;23.61;69.97
21109;BME280;10712;52.944;9.098;2023-09-19T02:51:01;100483.06;;;23.62;69.96
21109;BME280;10712;52.944;9.098;2023-09-19T02:53:29;100486.78;;;23.61;70.16
21109;BME280;10712;52.944;9.098;2023-09-19T02:55:56;100477.97;;;23.59;70.20
21109;BME280;10712;52.944;9.098;2023-09-19T02:58:22;100489.22;;;23.55;70.32
21109;BME280;10712;52.944;9.098;2023-09-19T03:00:49;100481.78;;;23.49;70.20
21109;BME280;10712;52.944;9.098;2023-09-19T03:03:17;100483.97;;;23.46;70.48
21109;BME280;10712;52.944;9.098;2023-09-19T03:05:44;100481.09;;;23.47;70.32
21109;BME280;10712;52.944;9.098;2023-09-19T03:08:15;100489.25;;;23.47;70.24
21109;BME280;10712;52.944;9.098;2023-09-19T03:10:41;100497.72;;;23.44;70.77
21109;BME280;10712;52.944;9.098;2023-09-19T03:13:07;100488.38;;;23.47;70.82
21109;BME280;10712;52.944;9.098;2023-09-19T03:15:36;100496.06;;;23.43;70.87
21109;BME280;10712;52.944;9.098;2023-09-19T03:18:05;100497.41;;;23.47;70.66
21109;BME280;10712;52.944;9.098;2023-09-19T03:20:32;100498.72;;;23.51;70.55
21109;BME280;10712;52.944;9.098;2023-09-19T03:22:58;100508.97;;;23.49;70.59
21109;BME280;10712;52.944;9.098;2023-09-19T03:25:23;100501.13;;;23.46;70.76
21109;BME280;10712;52.944;9.098;2023-09-19T03:27:51;100507.28;;;23.40;70.77
21109;BME280;10712;52.944;9.098;2023-09-19T03:30:18;100514.41;;;23.41;70.59
21109;BME280;10712;52.944;9.098;2023-09-19T03:32:46;100509.31;;;23.38;70.83
21109;BME280;10712;52.944;9.098;2023-09-19T03:35:13;100506.78;;;23.37;71.02
21109;BME280;10712;52.944;9.098;2023-09-19T03:37:44;100506.47;;;23.32;71.13
21109;BME280;10712;52.944;9.098;2023-09-19T03:40:11;100503.41;;;23.35;71.14
21109;BME280;10712;52.944;9.098;2023-09-19T03:42:41;100514.81;;;23.30;71.04
21109;BME280;10712;52.944;9.098;2023-09-19T03:45:10;100521.91;;;23.31;71.15
21109;BME280;10712;52.944;9.098;2023-09-19T03:47:42;100517.88;;;23.27;71.42
21109;BME280;10712;52.944;9.098;2023-09-19T03:50:09;100532.00;;;23.23;71.48
21109;BME280;10712;52.944;9.098;2023-09-19T03:52:41;100522.81;;;23.24;71.35
21109;BME280;10712;52.944;9.098;2023-09-19T03:55:07;100525.00;;;23.28;71.46
21109;BME280;10712;52.944;9.098;2023-09-19T03:57:33;100524.34;;;23.26;71.56
21109;BME280;10712;52.944;9.098;2023-09-19T04:00:02;100517.88;;;23.27;71.73
21109;BME280;10712;52.944;9.098;2023-09-19T04:02:39;100513.63;;;23.25;71.90
21109;BME280;10712;52.944;9.098;2023-09-19T04:05:05;100513.16;;;23.21;72.08
21109;BME280;10712;52.944;9.098;2023-09-19T04:07:31;100523.16;;;23.21;71.92
21109;BME280;10712;52.944;9.098;2023-09-19T04:09:57;100527.75;;;23.20;71.98
21109;BME280;10712;52.944;9.098;2023-09-19T04:12:23;100529.16;;;23.16;71.87
21109;BME280;10712;52.944;9.098;2023-09-19T04:14:49;100532.19;;;23.21;72.01
21109;BME280;10712;52.944;9.098;2023-09-19T04:17:16;100536.59;;;23.22;71.84
21109;BME280;10712;52.944;9.098;2023-09-19T04:19:42;100531.50;;;23.19;72.20
21109;BME280;10712;52.944;9.098;2023-09-19T04:22:08;100529.78;;;23.18;71.93
21109;BME280;10712;52.944;9.098;2023-09-19T04:24:35;100541.03;;;23.15;72.24
21109;BME280;10712;52.944;9.098;2023-09-19T04:27:01;100535.09;;;23.11;72.12
21109;BME280;10712;52.944;9.098;2023-09-19T04:29:27;100536.31;;;23.09;71.94
21109;BME280;10712;52.944;9.098;2023-09-19T04:31:55;100536.94;;;23.11;72.01
21109;BME280;10712;52.944;9.098;2023-09-19T04:34:23;100537.97;;;23.10;72.12
21109;BME280;10712;52.944;9.098;2023-09-19T04:36:50;100535.44;;;23.08;71.99
21109;BME280;10712;52.944;9.098;2023-09-19T04:39:15;100529.81;;;23.10;71.95
21109;BME280;10712;52.944;9.098;2023-09-19T04:41:42;100523.72;;;23.08;72.21
21109;BME280;10712;52.944;9.098;2023-09-19T04:44:08;100527.09;;;23.10;71.86
21109;BME280;10712;52.944;9.098;2023-09-19T04:46:34;100536.63;;;23.06;72.34
21109;BME280;10712;52.944;9.098;2023-09-19T04:49:01;100536.31;;;23.09;72.02
21109;BME280;10712;52.944;9.098;2023-09-19T04:51:28;100531.88;;;23.08;71.93
21109;BME280;10712;52.944;9.098;2023-09-19T04:53:58;100535.44;;;23.08;72.17
21109;BME280;10712;52.944;9.098;2023-09-19T04:56:24;100536.63;;;23.06;72.23
21109;BME280;10712;52.944;9.098;2023-09-19T04:58:50;100548.69;;;23.03;72.16
21109;BME280;10712;52.944;9.098;2023-09-19T05:01:16;100551.63;;;23.02;72.10
21109;BME280;10712;52.944;9.098;2023-09-19T05:03:42;100551.94;;;22.99;72.36
21109;BME280;10712;52.944;9.098;2023-09-19T05:06:08;100548.38;;;22.98;72.21
21109;BME280;10712;52.944;9.098;2023-09-19T05:08:34;100550.78;;;22.93;72.64
21109;BME280;10712;52.944;9.098;2023-09-19T05:11:02;100554.81;;;22.97;72.13
21109;BME280;10712;52.944;9.098;2023-09-19T05:13:28;100558.22;;;22.99;72.22
21109;BME280;10712;52.944;9.098;2023-09-19T05:15:54;100567.41;;;22.98;72.38
21109;BME280;10712;52.944;9.098;2023-09-19T05:18:19;100576.91;;;23.02;72.35
21109;BME280;10712;52.944;9.098;2023-09-19T05:20:45;100576.94;;;22.94;72.27
21109;BME280;10712;52.944;9.098;2023-09-19T05:23:11;100579.66;;;22.94;72.27
21109;BME280;10712;52.944;9.098;2023-09-19T05:25:40;100588.44;;;22.96;72.33
21109;BME280;10712;52.944;9.098;2023-09-19T05:28:07;100591.69;;;22.92;72.48
21109;BME280;10712;52.944;9.098;2023-09-19T05:30:34;100591.16;;;22.96;72.23
21109;BME280;10712;52.944;9.098;2023-09-19T05:33:02;100599.16;;;22.98;72.21
21109;BME280;10712;52.944;9.098;2023-09-19T05:35:30;100593.03;;;22.96;72.32
21109;BME280;10712;52.944;9.098;2023-09-19T05:37:57;100599.84;;;22.92;72.13
21109;BME280;10712;52.944;9.098;2023-09-19T05:40:24;100601.72;;;22.91;72.40
21109;BME280;10712;52.944;9.098;2023-09-19T05:42:51;100585.25;;;22.93;72.42
21109;BME280;10712;52.944;9.098;2023-09-19T05:45:17;100582.53;;;22.85;72.70
21109;BME280;10712;52.944;9.098;2023-09-19T05:47:52;100590.16;;;22.89;72.80
21109;BME280;10712;52.944;9.098;2023-09-19T05:50:22;100596.13;;;22.93;72.55
21109;BME280;10712;52.944;9.098;2023-09-19T05:52:54;100596.97;;;22.93;72.68
21109;BME280;10712;52.944;9.098;2023-09-19T05:55:21;100602.56;;;23.00;72.94
21109;BME280;10712;52.944;9.098;2023-09-19T05:57:52;100602.22;;;22.95;72.86
21109;BME280;10712;52.944;9.098;2023-09-19T06:00:22;100600.53;;;23.02;72.95
21109;BME280;10712;52.944;9.098;2023-09-19T06:02:57;100591.00;;;23.06;73.07
21109;BME280;10712;52.944;9.098;2023-09-19T06:05:25;100596.56;;;23.12;72.86
21109;BME280;10712;52.944;9.098;2023-09-19T06:07:56;100611.69;;;23.15;72.99
21109;BME280;10712;52.944;9.098;2023-09-19T06:10:26;100600.13;;;23.21;72.90
21109;BME280;10712;52.944;9.098;2023-09-19T06:12:54;100608.28;;;23.21;73.04
21109;BME280;10712;52.944;9.098;2023-09-19T06:15:21;100614.88;;;23.27;73.10
21109;BME280;10712;52.944;9.098;2023-09-19T06:17:53;100613.69;;;23.29;72.94
21109;BME280;10712;52.944;9.098;2023-09-19T06:20:24;100613.69;;;23.29;72.92
21109;BME280;10712;52.944;9.098;2023-09-19T06:22:52;100612.69;;;23.30;72.83
21109;BME280;10712;52.944;9.098;2023-09-19T06:25:19;100616.41;;;23.29;72.93
21109;BME280;10712;52.944;9.098;2023-09-19T06:27:47;100622.03;;;23.28;72.48
21109;BME280;10712;52.944;9.098;2023-09-19T06:30:13;100618.75;;;23.32;72.71
21109;BME280;10712;52.944;9.098;2023-09-19T06:32:41;100620.63;;;23.32;72.65
21109;BME280;10712;52.944;9.098;2023-09-19T06:35:12;100622.84;;;23.36;72.32
21109;BME280;10712;52.944;9.098;2023-09-19T06:37:40;100624.03;;;23.34;72.19
21109;BME280;10712;52.944;9.098;2023-09-19T06:40:14;100627.59;;;23.34;72.45
21109;BME280;10712;52.944;9.098;2023-09-19T06:42:50;100619.63;;;23.33;72.44
21109;BME280;10712;52.944;9.098;2023-09-19T06:45:17;100626.56;;;23.43;72.30
21109;BME280;10712;52.944;9.098;2023-09-19T06:47:51;100630.31;;;23.42;72.07
21109;BME280;10712;52.944;9.098;2023-09-19T06:50:22;100626.38;;;23.45;71.84
21109;BME280;10712;52.944;9.098;2023-09-19T06:52:51;100631.31;;;23.41;71.73
21109;BME280;10712;52.944;9.098;2023-09-19T06:55:18;100636.59;;;23.43;71.67
21109;BME280;10712;52.944;9.098;2023-09-19T06:57:47;100628.06;;;23.46;71.31
21109;BME280;10712;52.944;9.098;2023-09-19T07:00:14;100631.34;;;23.49;71.35
21109;BME280;10712;52.944;9.098;2023-09-19T07:03:04;100637.44;;;23.43;71.11
21109;BME280;10712;52.944;9.098;2023-09-19T07:05:37;100648.13;;;23.53;70.99
21109;BME280;10712;52.944;9.098;2023-09-19T07:08:07;100652.34;;;23.64;70.93
21109;BME280;10712;52.944;9.098;2023-09-19T07:10:34;100651.34;;;23.65;70.72
21109;BME280;10712;52.944;9.098;2023-09-19T07:13:03;100661.22;;;23.58;70.94
21109;BME280;10712;52.944;9.098;2023-09-19T07:15:33;100669.31;;;23.66;70.78
21109;BME280;10712;52.944;9.098;2023-09-19T07:18:03;100674.44;;;23.69;70.50
21109;BME280;10712;52.944;9.098;2023-09-19T07:20:29;100670.19;;;23.66;70.40
21109;BME280;10712;52.944;9.098;2023-09-19T07:22:58;100672.03;;;23.74;70.00
21109;BME280;10712;52.944;9.098;2023-09-19T07:25:28;100679.00;;;23.68;69.95
21109;BME280;10712;52.944;9.098;2023-09-19T07:27:58;100669.00;;;23.69;69.95
21109;BME280;10712;52.944;9.098;2023-09-19T07:34:33;100674.03;;;23.80;68.69
21109;BME280;10712;52.944;9.098;2023-09-19T07:36:59;100683.19;;;23.87;68.56
21109;BME280;10712;52.944;9.098;2023-09-19T07:39:25;100674.00;;;23.88;68.39
21109;BME280;10712;52.944;9.098;2023-09-19T07:41:52;100666.66;;;23.97;68.45
21109;BME280;10712;52.944;9.098;2023-09-19T07:44:20;100673.94;;;24.04;68.44
21109;BME280;10712;52.944;9.098;2023-09-19T07:46:47;100672.91;;;24.05;68.28
21109;BME280;10712;52.944;9.098;2023-09-19T07:49:17;100681.84;;;24.14;67.91
21109;BME280;10712;52.944;9.098;2023-09-19T07:51:44;100680.34;;;24.19;67.40
21109;BME280;10712;52.944;9.098;2023-09-19T07:54:13;100683.53;;;24.23;66.79
21109;BME280;10712;52.944;9.098;2023-09-19T07:56:41;100679.31;;;24.20;66.90
21109;BME280;10712;52.944;9.098;2023-09-19T07:59:07;100678.91;;;24.31;66.50
21109;BME280;10712;52.944;9.098;2023-09-19T08:01:34;100680.06;;;24.37;66.10
21109;BME280;10712;52.944;9.098;2023-09-19T08:04:01;100676.31;;;24.38;66.19
21109;BME280;10712;52.944;9.098;2023-09-19T08:06:27;100681.25;;;24.34;65.65
21109;BME280;10712;52.944;9.098;2023-09-19T08:08:55;100675.13;;;24.41;65.69
21109;BME280;10712;52.944;9.098;2023-09-19T08:11:22;100675.25;;;24.47;65.53
21109;BME280;10712;52.944;9.098;2023-09-19T08:13:50;100684.16;;;24.56;65.35
21109;BME280;10712;52.944;9.098;2023-09-19T08:16:16;100694.03;;;24.57;65.20
21109;BME280;10712;52.944;9.098;2023-09-19T08:18:48;100688.59;;;24.57;65.54
21109;BME280;10712;52.944;9.098;2023-09-19T08:21:15;100682.41;;;24.63;65.30
21109;BME280;10712;52.944;9.098;2023-09-19T08:23:41;100698.13;;;24.61;65.15
21109;BME280;10712;52.944;9.098;2023-09-19T08:26:08;100704.53;;;24.68;64.97
21109;BME280;10712;52.944;9.098;2023-09-19T08:28:35;100699.25;;;24.66;64.89
21109;BME280;10712;52.944;9.098;2023-09-19T08:31:07;100691.38;;;24.71;64.93
21109;BME280;10712;52.944;9.098;2023-09-19T08:33:37;100695.44;;;24.76;64.58
21109;BME280;10712;52.944;9.098;2023-09-19T08:36:04;100694.22;;;24.78;64.56
21109;BME280;10712;52.944;9.098;2023-09-19T08:38:33;100696.22;;;24.84;64.50
21109;BME280;10712;52.944;9.098;2023-09-19T08:41:00;100690.81;;;24.76;64.22
21109;BME280;10712;52.944;9.098;2023-09-19T08:43:31;100698.94;;;24.84;64.25
21109;BME280;10712;52.944;9.098;2023-09-19T08:48:32;100702.00;;;24.89;64.27
21109;BME280;10712;52.944;9.098;2023-09-19T08:51:26;100692.44;;;24.93;64.44
21109;BME280;10712;52.944;9.098;2023-09-19T08:56:32;100691.69;;;24.99;64.15
21109;BME280;10712;52.944;9.098;2023-09-19T08:59:03;100704.66;;;24.97;64.06
21109;BME280;10712;52.944;9.098;2023-09-19T09:01:31;100698.47;;;25.03;64.09
21109;BME280;10712;52.944;9.098;2023-09-19T09:03:58;100705.72;;;25.11;64.21
21109;BME280;10712;52.944;9.098;2023-09-19T09:06:25;100700.84;;;25.06;63.71
21109;BME280;10712;52.944;9.098;2023-09-19T09:08:54;100686.84;;;25.09;63.72
21109;BME280;10712;52.944;9.098;2023-09-19T09:11:20;100691.63;;;25.07;63.61
21109;BME280;10712;52.944;9.098;2023-09-19T09:13:47;100701.19;;;25.03;63.48
21109;BME280;10712;52.944;9.098;2023-09-19T09:16:14;100703.84;;;25.11;63.47
21109;BME280;10712;52.944;9.098;2023-09-19T09:18:45;100708.75;;;25.16;63.39
21109;BME280;10712;52.944;9.098;2023-09-19T09:21:12;100712.97;;;25.19;63.60
21109;BME280;10712;52.944;9.098;2023-09-19T09:23:40;100709.97;;;25.14;63.55
21109;BME280;10712;52.944;9.098;2023-09-19T09:26:06;100702.38;;;25.24;63.37
21109;BME280;10712;52.944;9.098;2023-09-19T09:28:34;100705.22;;;25.30;63.44
21109;BME280;10712;52.944;9.098;2023-09-19T09:31:02;100704.09;;;25.39;62.79
21109;BME280;10712;52.944;9.098;2023-09-19T09:33:38;100706.63;;;25.41;62.07
21109;BME280;10712;52.944;9.098;2023-09-19T09:36:05;100696.75;;;25.40;62.16
21109;BME280;10712;52.944;9.098;2023-09-19T09:38:48;100704.56;;;25.43;62.37
21109;BME280;10712;52.944;9.098;2023-09-19T09:41:36;100708.06;;;25.52;62.42
21109;BME280;10712;52.944;9.098;2023-09-19T09:44:29;100702.22;;;25.55;62.42
21109;BME280;10712;52.944;9.098;2023-09-19T09:46:57;100700.66;;;25.60;62.30
21109;BME280;10712;52.944;9.098;2023-09-19T09:49:48;100704.41;;;25.59;61.49
21109;BME280;10712;52.944;9.098;2023-09-19T09:52:20;100698.59;;;25.62;61.85
21109;BME280;10712;52.944;9.098;2023-09-19T09:55:03;100705.66;;;25.71;61.53
21109;BME280;10712;52.944;9.098;2023-09-19T09:57:33;100707.13;;;25.74;61.72
21109;BME280;10712;52.944;9.098;2023-09-19T10:00:01;100711.22;;;25.78;61.81
21109;BME280;10712;52.944;9.098;2023-09-19T10:02:38;100714.38;;;25.81;61.11
21109;BME280;10712;52.944;9.098;2023-09-19T10:05:21;100725.50;;;25.65;61.04
21109;BME280;10712;52.944;9.098;2023-09-19T10:07:52;100727.19;;;25.66;61.07
21109;BME280;10712;52.944;9.098;2023-09-19T10:10:36;100710.34;;;25.63;61.50
21109;BME280;10712;52.944;9.098;2023-09-19T10:13:13;100717.59;;;25.70;61.61
21109;BME280;10712;52.944;9.098;2023-09-19T10:15:48;100726.47;;;25.72;61.50
21109;BME280;10712;52.944;9.098;2023-09-19T10:18:23;100717.13;;;25.81;61.36
21109;BME280;10712;52.944;9.098;2023-09-19T10:20:50;100717.97;;;25.82;61.29
21109;BME280;10712;52.944;9.098;2023-09-19T10:23:21;100718.72;;;25.91;61.07
21109;BME280;10712;52.944;9.098;2023-09-19T10:25:52;100714.97;;;25.92;60.95
21109;BME280;10712;52.944;9.098;2023-09-19T10:28:19;100718.16;;;25.95;60.95
21109;BME280;10712;52.944;9.098;2023-09-19T10:30:51;100715.72;;;25.85;60.90
21109;BME280;10712;52.944;9.098;2023-09-19T10:33:24;100716.19;;;25.89;60.64
21109;BME280;10712;52.944;9.098;2023-09-19T10:35:59;100715.31;;;25.88;60.77
21109;BME280;10712;52.944;9.098;2023-09-19T10:38:27;100712.69;;;25.95;61.13
21109;BME280;10712;52.944;9.098;2023-09-19T10:40:56;100712.88;;;25.94;61.27
21109;BME280;10712;52.944;9.098;2023-09-19T10:43:30;100724.84;;;25.78;61.44
21109;BME280;10712;52.944;9.098;2023-09-19T10:46:06;100726.06;;;26.05;61.24
21109;BME280;10712;52.944;9.098;2023-09-19T10:48:33;100718.53;;;26.07;61.13
21109;BME280;10712;52.944;9.098;2023-09-19T10:51:12;100721.53;;;26.12;60.52
21109;BME280;10712;52.944;9.098;2023-09-19T10:54:11;100707.59;;;26.07;59.91
21109;BME280;10712;52.944;9.098;2023-09-19T10:56:46;100712.81;;;26.23;60.32
21109;BME280;10712;52.944;9.098;2023-09-19T10:59:16;100717.00;;;26.19;59.42
21109;BME280;10712;52.944;9.098;2023-09-19T11:01:51;100709.34;;;26.29;59.37
21109;BME280;10712;52.944;9.098;2023-09-19T11:04:34;100712.75;;;26.31;59.57
21109;BME280;10712;52.944;9.098;2023-09-19T11:15:03;100702.53;;;26.54;58.94
21109;BME280;10712;52.944;9.098;2023-09-19T11:17:43;100711.56;;;26.55;59.18
21109;BME280;10712;52.944;9.098;2023-09-19T11:30:50;100698.09;;;26.75;58.35
21109;BME280;10712;52.944;9.098;2023-09-19T11:33:29;100695.75;;;26.72;57.69
21109;BME280;10712;52.944;9.098;2023-09-19T11:36:15;100706.28;;;26.75;57.66
21109;BME280;10712;52.944;9.098;2023-09-19T11:41:37;100699.63;;;26.62;57.14
21109;BME280;10712;52.944;9.098;2023-09-19T11:46:31;100695.38;;;26.75;57.97
21109;BME280;10712;52.944;9.098;2023-09-19T11:49:09;100680.19;;;26.72;57.09
21109;BME280;10712;52.944;9.098;2023-09-19T11:51:42;100687.94;;;26.69;57.12
21109;BME280;10712;52.944;9.098;2023-09-19T11:54:14;100684.63;;;26.52;57.62
21109;BME280;10712;52.944;9.098;2023-09-19T11:56:44;100689.38;;;26.64;57.97
21109;BME280;10712;52.944;9.098;2023-09-19T11:59:11;100683.22;;;26.84;57.69
21109;BME280;10712;52.944;9.098;2023-09-19T12:01:42;100681.56;;;26.83;57.72
21109;BME280;10712;52.944;9.098;2023-09-19T12:04:17;100687.03;;;26.83;57.54
21109;BME280;10712;52.944;9.098;2023-09-19T12:06:56;100688.13;;;26.88;57.12
21109;BME280;10712;52.944;9.098;2023-09-19T12:09:24;100678.22;;;26.87;56.93
21109;BME280;10712;52.944;9.098;2023-09-19T12:11:51;100699.44;;;26.85;57.06
21109;BME280;10712;52.944;9.098;2023-09-19T12:14:24;100684.53;;;26.88;56.81
21109;BME280;10712;52.944;9.098;2023-09-19T12:16:55;100685.97;;;26.84;56.74
21109;BME280;10712;52.944;9.098;2023-09-19T12:19:22;100693.56;;;27.03;56.65
21109;BME280;10712;52.944;9.098;2023-09-19T12:24:27;100691.53;;;27.18;55.77
21109;BME280;10712;52.944;9.098;2023-09-19T12:27:03;100686.13;;;27.25;55.18
21109;BME280;10712;52.944;9.098;2023-09-19T12:29:46;100683.94;;;27.14;55.26
21109;BME280;10712;52.944;9.098;2023-09-19T12:32:15;100684.13;;;27.12;55.46
21109;BME280;10712;52.944;9.098;2023-09-19T12:34:53;100689.63;;;27.12;55.76
21109;BME280;10712;52.944;9.098;2023-09-19T12:37:20;100684.41;;;27.17;55.85
21109;BME280;10712;52.944;9.098;2023-09-19T12:40:06;100667.09;;;27.10;55.85
21109;BME280;10712;52.944;9.098;2023-09-19T12:42:44;100666.41;;;27.29;55.41
21109;BME280;10712;52.944;9.098;2023-09-19T12:45:11;100666.03;;;27.39;55.78
21109;BME280;10712;52.944;9.098;2023-09-19T12:51:10;100658.94;;;27.44;56.42
21109;BME280;10712;52.944;9.098;2023-09-19T12:53:46;100662.56;;;27.52;56.46
21109;BME280;10712;52.944;9.098;2023-09-19T12:56:17;100644.56;;;27.36;56.83
21109;BME280;10712;52.944;9.098;2023-09-19T13:01:26;100655.56;;;27.49;56.87
21109;BME280;10712;52.944;9.098;2023-09-19T13:06:50;100644.31;;;27.59;56.27
21109;BME280;10712;52.944;9.098;2023-09-19T13:09:18;100638.63;;;27.67;56.22
21109;BME280;10712;52.944;9.098;2023-09-19T13:11:46;100643.06;;;27.68;56.52
21109;BME280;10712;52.944;9.098;2023-09-19T13:14:21;100642.69;;;27.71;56.65
21109;BME280;10712;52.944;9.098;2023-09-19T13:17:01;100625.44;;;27.77;56.24
21109;BME280;10712;52.944;9.098;2023-09-19T13:19:42;100632.19;;;27.81;56.46
21109;BME280;10712;52.944;9.098;2023-09-19T13:22:44;100623.78;;;27.89;56.13
21109;BME280;10712;52.944;9.098;2023-09-19T13:25:17;100630.16;;;28.03;55.75
21109;BME280;10712;52.944;9.098;2023-09-19T13:27:52;100625.75;;;28.08;55.37
21109;BME280;10712;52.944;9.098;2023-09-19T13:30:21;100617.31;;;28.03;55.14
21109;BME280;10712;52.944;9.098;2023-09-19T13:32:48;100624.34;;;28.19;55.60
21109;BME280;10712;52.944;9.098;2023-09-19T13:35:14;100627.50;;;28.23;55.83
21109;BME280;10712;52.944;9.098;2023-09-19T13:37:42;100623.25;;;28.13;55.43
21109;BME280;10712;52.944;9.098;2023-09-19T13:40:09;100627.22;;;28.04;55.96
21109;BME280;10712;52.944;9.098;2023-09-19T13:42:36;100625.31;;;27.98;55.38
21109;BME280;10712;52.944;9.098;2023-09-19T13:45:03;100620.41;;;27.87;55.82
21109;BME280;10712;52.944;9.098;2023-09-19T13:47:33;100621.50;;;27.93;56.22
21109;BME280;10712;52.944;9.098;2023-09-19T13:50:02;100614.19;;;28.06;55.96
21109;BME280;10712;52.944;9.098;2023-09-19T13:52:32;100609.53;;;28.07;55.60
21109;BME280;10712;52.944;9.098;2023-09-19T13:54:59;100617.97;;;28.05;55.44
21109;BME280;10712;52.944;9.098;2023-09-19T13:57:26;100617.31;;;28.10;55.57
21109;BME280;10712;52.944;9.098;2023-09-19T13:59:53;100620.50;;;28.07;55.65
21109;BME280;10712;52.944;9.098;2023-09-19T14:02:22;100612.47;;;28.05;56.01
21109;BME280;10712;52.944;9.098;2023-09-19T14:04:49;100607.47;;;28.15;56.14
21109;BME280;10712;52.944;9.098;2023-09-19T14:07:16;100600.69;;;28.11;55.25
21109;BME280;10712;52.944;9.098;2023-09-19T14:09:43;100611.00;;;28.09;55.49